createdAt,value
2023-01-05T00:01:22.036Z,8.56
2023-01-05T00:03:56.442Z,8.61
2023-01-05T00:06:28.266Z,8.60
2023-01-05T00:09:01.636Z,8.58
2023-01-05T00:11:54.516Z,8.56
2023-01-05T00:14:44.747Z,8.58
2023-01-05T00:17:33.965Z,8.55
2023-01-05T00:20:21.240Z,8.59
2023-01-05T00:22:55.938Z,8.59
2023-01-05T00:25:33.826Z,8.60
2023-01-05T00:28:04.986Z,8.62
2023-01-05T00:30:35.733Z,8.64
2023-01-05T00:33:08.867Z,8.62
2023-01-05T00:35:44.224Z,8.65
2023-01-05T00:38:14.100Z,8.62
2023-01-05T00:40:47.424Z,8.67
2023-01-05T00:43:21.219Z,8.62
2023-01-05T00:45:56.054Z,8.61
2023-01-05T00:48:32.287Z,8.63
2023-01-05T00:51:04.961Z,8.63
2023-01-05T00:53:37.391Z,8.62
2023-01-05T00:56:11.859Z,8.65
2023-01-05T00:58:44.516Z,8.59
2023-01-05T01:01:17.794Z,8.62
2023-01-05T01:03:52.015Z,8.63
2023-01-05T01:06:26.938Z,8.60
2023-01-05T01:08:57.114Z,8.65
2023-01-05T01:11:25.135Z,8.65
2023-01-05T01:13:54.671Z,8.61
2023-01-05T01:16:23.748Z,8.63
2023-01-05T01:18:53.606Z,8.59
2023-01-05T01:21:22.146Z,8.59
2023-01-05T01:23:50.671Z,8.58
2023-01-05T01:26:18.747Z,8.57
2023-01-05T01:28:48.150Z,8.57
2023-01-05T01:31:18.139Z,8.60
2023-01-05T01:33:46.875Z,8.58
2023-01-05T01:36:16.063Z,8.56
2023-01-05T01:38:44.321Z,8.56
2023-01-05T01:41:13.199Z,8.48
2023-01-05T01:43:43.564Z,8.52
2023-01-05T01:46:12.680Z,8.46
2023-01-05T01:48:45.807Z,8.47
2023-01-05T01:51:16.195Z,8.45
2023-01-05T01:53:45.812Z,8.42
2023-01-05T01:56:16.400Z,8.41
2023-01-05T01:58:44.656Z,8.41
2023-01-05T02:01:13.046Z,8.43
2023-01-05T02:03:41.293Z,8.34
2023-01-05T02:06:11.795Z,8.29
2023-01-05T02:08:40.131Z,8.29
2023-01-05T02:11:23.657Z,8.29
2023-01-05T02:13:58.687Z,8.26
2023-01-05T02:16:31.504Z,8.28
2023-01-05T02:19:06.645Z,8.24
2023-01-05T02:21:47.985Z,8.23
2023-01-05T02:24:36.412Z,8.18
2023-01-05T02:27:25.341Z,8.18
2023-01-05T02:30:05.677Z,8.20
2023-01-05T02:32:37.626Z,8.21
2023-01-05T02:35:12.898Z,8.17
2023-01-05T02:37:42.799Z,8.22
2023-01-05T02:40:15.793Z,8.20
2023-01-05T02:42:44.664Z,8.13
2023-01-05T02:45:16.590Z,8.14
2023-01-05T02:47:46.495Z,8.12
2023-01-05T02:50:17.464Z,8.10
2023-01-05T02:52:52.340Z,8.11
2023-01-05T02:55:23.321Z,8.07
2023-01-05T02:57:53.547Z,8.08
2023-01-05T03:00:27.005Z,8.11
2023-01-05T03:03:00.546Z,8.12
2023-01-05T03:05:31.879Z,8.11
2023-01-05T03:08:07.121Z,8.09
2023-01-05T03:11:02.116Z,8.06
2023-01-05T03:13:44.287Z,8.09
2023-01-05T03:16:20.540Z,8.11
2023-01-05T03:19:08.269Z,8.08
2023-01-05T03:21:54.187Z,8.07
2023-01-05T03:24:40.406Z,8.06
2023-01-05T03:27:29.617Z,8.05
2023-01-05T03:30:17.366Z,8.04
2023-01-05T03:33:07.419Z,8.04
2023-01-05T03:35:41.952Z,8.02
2023-01-05T03:38:18.293Z,8.05
2023-01-05T03:40:52.394Z,8.07
2023-01-05T03:43:21.593Z,8.05
2023-01-05T03:45:53.622Z,8.07
2023-01-05T03:48:25.725Z,7.99
2023-01-05T03:50:55.667Z,8.09
2023-01-05T03:53:25.797Z,8.05
2023-01-05T03:55:54.650Z,8.08
2023-01-05T03:58:24.530Z,8.10
2023-01-05T04:00:53.741Z,8.07
2023-01-05T04:03:31.103Z,8.09
2023-01-05T04:06:02.776Z,8.09
2023-01-05T04:08:33.175Z,8.13
2023-01-05T04:11:11.753Z,8.11
2023-01-05T04:13:40.229Z,8.15
2023-01-05T04:16:09.011Z,8.18
2023-01-05T04:18:38.929Z,8.17
2023-01-05T04:21:08.569Z,8.17
2023-01-05T04:23:37.893Z,8.20
2023-01-05T04:26:07.104Z,8.20
2023-01-05T04:28:35.327Z,8.22
2023-01-05T04:31:04.362Z,8.19
2023-01-05T04:33:34.133Z,8.21
2023-01-05T04:36:03.536Z,8.20
2023-01-05T04:38:34.704Z,8.21
2023-01-05T04:41:03.088Z,8.19
2023-01-05T04:43:31.169Z,8.15
2023-01-05T04:46:01.940Z,8.12
2023-01-05T04:48:32.003Z,8.11
2023-01-05T04:51:01.243Z,8.13
2023-01-05T04:53:37.532Z,8.09
2023-01-05T04:56:07.556Z,8.13
2023-01-05T04:58:41.202Z,8.11
2023-01-05T05:01:10.030Z,8.10
2023-01-05T05:03:39.784Z,8.17
2023-01-05T05:06:11.261Z,8.20
2023-01-05T05:08:41.085Z,8.22
2023-01-05T05:11:10.835Z,8.29
2023-01-05T05:13:40.989Z,8.30
2023-01-05T05:16:09.913Z,8.31
2023-01-05T05:18:40.474Z,8.34
2023-01-05T05:21:12.240Z,8.36
2023-01-05T05:23:42.678Z,8.37
2023-01-05T05:26:10.817Z,8.40
2023-01-05T05:28:39.356Z,8.37
2023-01-05T05:31:07.677Z,8.43
2023-01-05T05:33:38.082Z,8.46
2023-01-05T05:36:07.350Z,8.45
2023-01-05T05:38:35.463Z,8.45
2023-01-05T05:41:04.992Z,8.45
2023-01-05T05:43:33.217Z,8.48
2023-01-05T05:46:01.309Z,8.46
2023-01-05T05:48:29.394Z,8.47
2023-01-05T05:50:57.779Z,8.48
2023-01-05T05:53:26.163Z,8.47
2023-01-05T05:55:54.183Z,8.48
2023-01-05T05:58:23.783Z,8.45
2023-01-05T06:00:52.171Z,8.43
2023-01-05T06:03:20.501Z,8.38
2023-01-05T06:05:48.592Z,8.40
2023-01-05T06:08:16.681Z,8.38
2023-01-05T06:10:44.762Z,8.38
2023-01-05T06:13:13.203Z,8.36
2023-01-05T06:15:43.352Z,8.38
2023-01-05T06:18:11.718Z,8.36
2023-01-05T06:20:40.437Z,8.31
2023-01-05T06:23:08.687Z,8.33
2023-01-05T06:25:36.736Z,8.30
2023-01-05T06:28:05.187Z,8.29
2023-01-05T06:30:33.203Z,8.28
2023-01-05T06:33:02.914Z,8.27
2023-01-05T06:35:31.225Z,8.30
2023-01-05T06:37:59.550Z,8.33
2023-01-05T06:40:27.779Z,8.31
2023-01-05T06:42:55.853Z,8.33
2023-01-05T06:45:23.944Z,8.36
2023-01-05T06:47:52.143Z,8.40
2023-01-05T06:50:21.834Z,8.41
2023-01-05T06:52:49.996Z,8.44
2023-01-05T06:55:18.250Z,8.45
2023-01-05T06:57:46.338Z,8.53
2023-01-05T07:00:15.300Z,8.50
2023-01-05T07:02:43.344Z,8.54
2023-01-05T07:05:11.696Z,8.57
2023-01-05T07:07:41.312Z,8.67
2023-01-05T07:10:09.746Z,8.71
2023-01-05T07:12:37.988Z,8.75
2023-01-05T07:15:06.919Z,8.81
2023-01-05T07:17:36.645Z,8.84
2023-01-05T07:20:05.429Z,8.87
2023-01-05T07:22:33.837Z,8.90
2023-01-05T07:25:03.392Z,8.92
2023-01-05T07:27:31.835Z,8.96
2023-01-05T07:30:00.359Z,8.98
2023-01-05T07:32:28.541Z,9.03
2023-01-05T07:34:56.816Z,9.06
2023-01-05T07:37:25.667Z,9.10
2023-01-05T07:39:54.197Z,9.11
2023-01-05T07:42:23.828Z,9.13
2023-01-05T07:44:52.441Z,9.16
2023-01-05T07:47:21.148Z,9.21
2023-01-05T07:49:49.682Z,9.25
2023-01-05T07:52:18.300Z,9.29
2023-01-05T07:54:46.650Z,9.29
2023-01-05T07:57:14.699Z,9.27
2023-01-05T07:59:44.148Z,9.27
2023-01-05T08:02:12.500Z,9.29
2023-01-05T08:04:40.944Z,9.29
2023-01-05T08:07:11.668Z,9.28
2023-01-05T08:09:57.260Z,9.29
2023-01-05T08:12:25.600Z,9.32
2023-01-05T08:14:55.254Z,9.32
2023-01-05T08:17:23.444Z,9.34
2023-01-05T08:19:51.557Z,9.35
2023-01-05T08:22:19.650Z,9.35
2023-01-05T08:24:47.624Z,9.38
2023-01-05T08:27:16.130Z,9.44
2023-01-05T08:29:44.384Z,9.46
2023-01-05T08:32:13.999Z,9.45
2023-01-05T08:34:42.115Z,9.43
2023-01-05T08:37:10.314Z,9.45
2023-01-05T08:39:38.698Z,9.44
2023-01-05T08:42:06.964Z,9.46
2023-01-05T08:44:35.324Z,9.43
2023-01-05T08:47:03.478Z,9.40
2023-01-05T08:49:32.953Z,9.40
2023-01-05T08:52:01.094Z,9.36
2023-01-05T08:54:29.295Z,9.34
2023-01-05T08:56:57.494Z,9.28
2023-01-05T08:59:25.723Z,9.33
2023-01-05T09:01:53.843Z,9.34
2023-01-05T09:04:22.108Z,9.34
2023-01-05T09:06:51.952Z,9.36
2023-01-05T09:09:20.236Z,9.43
2023-01-05T09:11:48.517Z,9.45
2023-01-05T09:14:17.042Z,9.48
2023-01-05T09:19:33.370Z,9.54
2023-01-05T09:22:02.829Z,9.54
2023-01-05T09:24:31.063Z,9.59
2023-01-05T09:26:59.243Z,9.62
2023-01-05T09:29:34.048Z,9.61
2023-01-05T09:32:15.595Z,9.61
2023-01-05T09:34:45.925Z,9.65
2023-01-05T09:37:20.984Z,9.64
2023-01-05T09:39:51.610Z,9.66
2023-01-05T09:42:22.853Z,9.69
2023-01-05T09:44:58.697Z,9.65
2023-01-05T09:47:31.484Z,9.69
2023-01-05T09:50:01.434Z,9.70
2023-01-05T09:52:36.098Z,9.71
2023-01-05T09:55:14.164Z,9.72
2023-01-05T09:57:42.406Z,9.76
2023-01-05T10:00:16.777Z,9.80
2023-01-05T10:02:48.579Z,9.82
2023-01-05T10:05:17.596Z,9.82
2023-01-05T10:07:49.354Z,9.84
2023-01-05T10:10:30.567Z,9.85
2023-01-05T10:13:07.091Z,9.90
2023-01-05T10:15:44.133Z,9.94
2023-01-05T10:18:14.067Z,10.03
2023-01-05T10:20:47.537Z,10.05
2023-01-05T10:23:24.461Z,10.12
2023-01-05T10:25:56.162Z,10.15
2023-01-05T10:28:34.750Z,10.20
2023-01-05T10:31:03.786Z,10.21
2023-01-05T10:33:43.361Z,10.21
2023-01-05T10:36:58.070Z,10.26
2023-01-05T10:39:23.323Z,10.32
2023-01-05T10:41:59.683Z,10.34
2023-01-05T10:44:42.259Z,10.34
2023-01-05T10:47:12.766Z,10.41
2023-01-05T10:49:43.638Z,10.44
2023-01-05T10:52:14.938Z,10.49
2023-01-05T10:54:49.170Z,10.54
2023-01-05T10:57:36.975Z,10.54
2023-01-05T11:00:09.224Z,10.55
2023-01-05T11:02:39.831Z,10.61
2023-01-05T11:05:16.791Z,10.65
2023-01-05T11:07:49.847Z,10.70
2023-01-05T11:10:27.330Z,10.70
2023-01-05T11:13:01.195Z,10.74
2023-01-05T11:15:30.285Z,10.76
2023-01-05T11:17:59.313Z,10.76
2023-01-05T11:20:29.388Z,10.80
2023-01-05T11:22:57.852Z,10.80
2023-01-05T11:25:30.976Z,10.83
2023-01-05T11:28:06.819Z,10.85
2023-01-05T11:30:35.409Z,10.85
2023-01-05T11:33:05.806Z,10.88
2023-01-05T11:35:40.685Z,10.87
2023-01-05T11:38:21.846Z,10.94
2023-01-05T11:40:52.096Z,10.93
2023-01-05T11:43:21.978Z,10.93
2023-01-05T11:45:53.024Z,10.93
2023-01-05T11:48:23.309Z,10.94
2023-01-05T11:50:53.472Z,10.88
2023-01-05T11:53:27.505Z,10.81
2023-01-05T11:56:05.064Z,10.80
2023-01-05T11:58:35.182Z,10.83
2023-01-05T12:01:31.197Z,10.84
2023-01-05T12:04:02.554Z,10.87
2023-01-05T12:06:46.742Z,10.86
2023-01-05T12:09:19.425Z,10.92
2023-01-05T12:11:53.439Z,10.94
2023-01-05T12:14:30.824Z,10.98
2023-01-05T12:17:03.153Z,11.02
2023-01-05T12:19:42.084Z,11.00
2023-01-05T12:22:23.072Z,10.99
2023-01-05T12:25:02.145Z,11.02
2023-01-05T12:27:39.731Z,11.05
2023-01-05T12:36:23.189Z,10.96
2023-01-05T12:38:58.323Z,10.91
2023-01-05T12:41:33.739Z,10.88
2023-01-05T12:44:16.248Z,10.88
2023-01-05T12:46:53.279Z,10.89
2023-01-05T12:49:25.767Z,10.87
2023-01-05T12:52:01.016Z,10.89
2023-01-05T12:54:38.092Z,10.94
2023-01-05T12:57:08.375Z,10.94
2023-01-05T12:59:41.392Z,10.97
2023-01-05T13:02:21.592Z,10.95
2023-01-05T13:04:56.071Z,10.95
2023-01-05T13:07:27.618Z,10.98
2023-01-05T13:10:02.630Z,10.92
2023-01-05T13:12:32.057Z,10.96
2023-01-05T13:15:07.983Z,10.89
2023-01-05T13:17:38.696Z,10.91
2023-01-05T13:20:17.917Z,10.91
2023-01-05T13:22:47.225Z,10.85
2023-01-05T13:25:18.501Z,10.84
2023-01-05T13:27:47.495Z,10.86
2023-01-05T13:30:22.172Z,10.88
2023-01-05T13:32:58.505Z,10.93
2023-01-05T13:35:44.031Z,10.93
2023-01-05T13:38:25.614Z,10.99
2023-01-05T13:41:12.403Z,10.93
2023-01-05T13:43:48.831Z,10.88
2023-01-05T13:46:27.562Z,10.87
2023-01-05T13:49:05.088Z,10.87
2023-01-05T13:51:52.342Z,10.87
2023-01-05T13:54:23.671Z,10.84
2023-01-05T13:56:52.128Z,10.86
2023-01-05T13:59:34.656Z,10.80
2023-01-05T14:02:06.998Z,10.77
2023-01-05T14:04:37.753Z,10.77
2023-01-05T14:07:08.251Z,10.76
2023-01-05T14:09:39.344Z,10.71
2023-01-05T14:12:26.813Z,10.72
2023-01-05T14:15:06.242Z,10.71
2023-01-05T14:17:55.731Z,10.72
2023-01-05T14:20:42.736Z,10.71
2023-01-05T14:23:31.280Z,10.73
2023-01-05T14:26:00.926Z,10.66
2023-01-05T14:28:43.538Z,10.62
2023-01-05T14:31:42.118Z,10.64
2023-01-05T14:34:16.331Z,10.59
2023-01-05T14:36:46.632Z,10.61
2023-01-05T14:39:30.029Z,10.58
2023-01-05T14:42:01.119Z,10.63
2023-01-05T14:44:31.301Z,10.55
2023-01-05T14:47:00.402Z,10.61
2023-01-05T14:49:33.042Z,10.55
2023-01-05T14:52:02.533Z,10.55
2023-01-05T14:54:38.947Z,10.54
2023-01-05T14:57:35.226Z,10.54
2023-01-05T15:00:07.068Z,10.54
2023-01-05T15:02:39.527Z,10.57
2023-01-05T15:05:13.575Z,10.59
2023-01-05T15:07:50.512Z,10.59
2023-01-05T15:10:27.197Z,10.59
2023-01-05T15:13:13.107Z,10.59
2023-01-05T15:15:47.733Z,10.59
2023-01-05T15:18:22.148Z,10.60
2023-01-05T15:21:05.336Z,10.55
2023-01-05T15:24:04.490Z,10.46
2023-01-05T15:26:54.421Z,10.44
2023-01-05T15:29:34.704Z,10.30
2023-01-05T15:32:04.720Z,10.27
2023-01-05T15:34:38.383Z,10.18
2023-01-05T15:37:12.843Z,10.08
2023-01-05T15:39:48.808Z,10.03
2023-01-05T15:42:18.731Z,9.94
2023-01-05T15:44:47.585Z,9.89
2023-01-05T15:47:15.957Z,9.91
2023-01-05T15:49:45.345Z,9.78
2023-01-05T15:52:21.018Z,9.79
2023-01-05T15:55:04.401Z,9.68
2023-01-05T15:57:33.950Z,9.66
2023-01-05T16:00:01.998Z,9.62
2023-01-05T16:02:40.027Z,9.50
2023-01-05T16:05:09.578Z,9.52
2023-01-05T16:07:42.201Z,9.48
2023-01-05T16:10:20.881Z,9.40
2023-01-05T16:12:52.982Z,9.39
2023-01-05T16:15:23.987Z,9.41
2023-01-05T16:17:54.054Z,9.33
2023-01-05T16:20:23.188Z,9.29
2023-01-05T16:23:00.990Z,9.31
2023-01-05T16:25:33.880Z,9.11
2023-01-05T16:28:08.219Z,9.08
2023-01-05T16:30:39.232Z,9.04
2023-01-05T16:33:12.201Z,8.93
2023-01-05T16:35:42.055Z,8.89
2023-01-05T16:38:33.565Z,8.88
2023-01-05T16:41:12.757Z,8.84
2023-01-05T16:43:48.778Z,8.77
2023-01-05T16:46:41.756Z,8.83
2023-01-05T16:49:33.952Z,8.76
2023-01-05T16:52:03.463Z,8.72
2023-01-05T16:54:38.049Z,8.72
2023-01-05T16:57:29.688Z,8.70
2023-01-05T16:59:59.405Z,8.68
2023-01-05T17:02:30.659Z,8.62
2023-01-05T17:05:00.691Z,8.57
2023-01-05T17:07:31.802Z,8.48
2023-01-05T17:10:00.404Z,8.45
2023-01-05T17:12:29.228Z,8.39
2023-01-05T17:15:00.216Z,8.36
2023-01-05T17:17:29.990Z,8.36
2023-01-05T17:19:58.220Z,8.33
2023-01-05T17:22:26.485Z,8.31
2023-01-05T17:24:55.722Z,8.32
2023-01-05T17:27:23.891Z,8.25
2023-01-05T17:29:53.254Z,8.23
2023-01-05T17:32:22.649Z,8.13
2023-01-05T17:34:52.819Z,8.10
2023-01-05T17:37:21.213Z,8.09
2023-01-05T17:39:49.271Z,8.09
2023-01-05T17:42:34.786Z,8.04
2023-01-05T17:45:04.252Z,8.09
2023-01-05T17:47:32.463Z,8.03
2023-01-05T17:50:05.270Z,7.98
2023-01-05T17:52:33.806Z,7.95
2023-01-05T17:55:02.018Z,7.98
2023-01-05T17:57:30.202Z,7.93
2023-01-05T17:59:58.482Z,7.88
2023-01-05T18:02:26.599Z,7.90
2023-01-05T18:04:56.585Z,7.89
2023-01-05T18:07:26.235Z,7.88
2023-01-05T18:09:58.561Z,7.82
2023-01-05T18:12:28.198Z,7.77
2023-01-05T18:15:01.020Z,7.73
2023-01-05T18:17:30.136Z,7.78
2023-01-05T18:19:58.240Z,7.73
2023-01-05T18:22:27.903Z,7.71
2023-01-05T18:24:57.544Z,7.76
2023-01-05T18:27:26.297Z,7.70
2023-01-05T18:29:54.805Z,7.61
2023-01-05T18:32:22.836Z,7.64
2023-01-05T18:34:51.259Z,7.69
2023-01-05T18:37:22.448Z,7.62
2023-01-05T18:39:53.020Z,7.66
2023-01-05T18:42:22.336Z,7.64
2023-01-05T18:44:50.558Z,7.62
2023-01-05T18:47:19.083Z,7.54
2023-01-05T18:49:49.928Z,7.60
2023-01-05T18:52:20.056Z,7.58
2023-01-05T18:54:48.877Z,7.53
2023-01-05T18:57:18.397Z,7.47
2023-01-05T18:59:47.434Z,7.34
2023-01-05T19:02:16.267Z,7.37
2023-01-05T19:04:44.528Z,7.39
2023-01-05T19:07:13.403Z,7.30
2023-01-05T19:09:42.545Z,7.25
2023-01-05T19:12:11.100Z,7.26
2023-01-05T19:14:40.908Z,7.20
2023-01-05T19:17:09.198Z,7.16
2023-01-05T19:19:38.219Z,7.15
2023-01-05T19:22:06.588Z,7.11
2023-01-05T19:24:36.103Z,7.08
2023-01-05T19:27:05.688Z,7.09
2023-01-05T19:29:35.402Z,7.03
2023-01-05T19:32:08.085Z,7.01
2023-01-05T19:34:36.601Z,6.96
2023-01-05T19:37:06.986Z,6.88
2023-01-05T19:39:37.728Z,6.82
2023-01-05T19:42:07.500Z,6.87
2023-01-05T19:44:35.515Z,6.81
2023-01-05T19:47:06.497Z,6.85
2023-01-05T19:49:36.284Z,6.85
2023-01-05T19:52:04.623Z,6.84
2023-01-05T19:54:32.809Z,6.83
2023-01-05T19:57:00.918Z,6.85
2023-01-05T19:59:33.497Z,6.86
2023-01-05T20:02:03.259Z,6.88
2023-01-05T20:04:33.423Z,6.87
2023-01-05T20:07:04.035Z,6.96
2023-01-05T20:09:34.324Z,6.96
2023-01-05T20:12:13.814Z,6.98
2023-01-05T20:14:43.849Z,6.98
2023-01-05T20:17:13.023Z,6.94
2023-01-05T20:19:43.054Z,6.91
2023-01-05T20:22:14.040Z,6.89
2023-01-05T20:24:43.215Z,6.84
2023-01-05T20:27:12.614Z,6.73
2023-01-05T20:29:40.901Z,6.67
2023-01-05T20:32:09.999Z,6.55
2023-01-05T20:34:39.301Z,6.46
2023-01-05T20:37:09.964Z,6.40
2023-01-05T20:39:38.952Z,6.29
2023-01-05T20:42:07.217Z,6.26
2023-01-05T20:44:36.993Z,6.19
2023-01-05T20:47:06.844Z,6.13
2023-01-05T20:49:35.487Z,6.00
2023-01-05T20:52:03.632Z,5.99
2023-01-05T20:54:33.634Z,5.98
2023-01-05T20:57:01.828Z,5.97
2023-01-05T20:59:31.681Z,5.98
2023-01-05T21:02:00.748Z,5.98
2023-01-05T21:04:29.607Z,5.94
2023-01-05T21:07:01.211Z,5.83
2023-01-05T21:09:31.024Z,5.84
2023-01-05T21:12:00.818Z,5.78
2023-01-05T21:14:28.985Z,5.68
2023-01-05T21:16:57.145Z,5.71
2023-01-05T21:19:25.822Z,5.72
2023-01-05T21:21:56.017Z,5.69
2023-01-05T21:24:24.623Z,5.65
2023-01-05T21:26:52.680Z,5.65
2023-01-05T21:29:24.733Z,5.66
2023-01-05T21:31:54.569Z,5.63
2023-01-05T21:34:23.704Z,5.65
2023-01-05T21:36:52.137Z,5.62
2023-01-05T21:39:21.754Z,5.61
2023-01-05T21:42:08.051Z,5.62
2023-01-05T21:44:38.191Z,5.59
2023-01-05T21:47:07.013Z,5.55
2023-01-05T21:49:35.114Z,5.48
2023-01-05T21:52:20.619Z,5.46
2023-01-05T21:55:06.146Z,5.46
2023-01-05T21:57:34.531Z,5.48
2023-01-05T22:00:04.257Z,5.52
2023-01-05T22:02:33.662Z,5.59
2023-01-05T22:05:01.747Z,5.59
2023-01-05T22:07:29.949Z,5.67
2023-01-05T22:09:58.162Z,5.66
2023-01-05T22:12:26.526Z,5.71
2023-01-05T22:14:54.731Z,5.73
2023-01-05T22:17:25.297Z,5.77
2023-01-05T22:19:53.961Z,5.84
2023-01-05T22:22:22.496Z,5.83
2023-01-05T22:24:52.286Z,5.81
2023-01-05T22:27:20.371Z,5.82
2023-01-05T22:29:48.470Z,5.81
2023-01-05T22:32:16.655Z,5.82
2023-01-05T22:34:47.037Z,5.80
2023-01-05T22:37:16.493Z,5.78
2023-01-05T22:39:44.590Z,5.76
2023-01-05T22:42:12.665Z,5.78
2023-01-05T22:44:41.511Z,5.81
2023-01-05T22:47:09.784Z,5.81
2023-01-05T22:49:39.197Z,5.74
2023-01-05T22:52:08.792Z,5.64
2023-01-05T22:54:39.632Z,5.66
2023-01-05T22:57:08.496Z,5.57
2023-01-05T22:59:36.565Z,5.46
2023-01-05T23:02:04.649Z,5.43
2023-01-05T23:04:32.784Z,5.38
2023-01-05T23:07:00.860Z,5.33
2023-01-05T23:09:30.578Z,5.25
2023-01-05T23:11:58.790Z,5.23
2023-01-05T23:14:26.931Z,5.19
2023-01-05T23:16:55.053Z,5.18
2023-01-05T23:19:23.383Z,5.10
2023-01-05T23:21:51.532Z,5.11
2023-01-05T23:24:19.643Z,5.10
2023-01-05T23:26:49.291Z,5.09
2023-01-05T23:29:17.444Z,5.09
2023-01-05T23:31:45.668Z,5.11
2023-01-05T23:34:13.785Z,5.14
2023-01-05T23:36:41.836Z,5.19
2023-01-05T23:39:10.116Z,5.20
2023-01-05T23:41:38.215Z,5.26
2023-01-05T23:44:08.252Z,5.26
2023-01-05T23:46:36.415Z,5.21
2023-01-05T23:49:05.117Z,5.15
2023-01-05T23:51:33.229Z,5.15
2023-01-05T23:54:01.296Z,5.12
2023-01-05T23:56:30.633Z,5.09
2023-01-05T23:58:59.627Z,5.02
